Time,TemperatureF,DewpointF,PressureIn,WindDirection,WindDirectionDegrees,WindSpeedMPH,WindSpeedGustMPH,Humidity,HourlyPrecipIn,Conditions,Clouds,dailyrainin,SoftwareType,DateUTC
2013-09-03 00:01:00,57.4,50.5,30.43,NNW,337,0.0,3.6,78,0.00,,,0.00,WUHU21623XXSP,2013-09-03 04:01:00,
2013-09-03 00:06:00,57.4,50.9,30.43,SW,225,0.0,3.6,79,0.00,,,0.00,WUHU21623XXSP,2013-09-03 04:06:00,
2013-09-03 00:11:00,57.4,50.5,30.43,WSW,247,0.0,0.0,78,0.00,,,0.00,WUHU21623XXSP,2013-09-03 04:11:00,
2013-09-03 00:16:00,57.4,50.5,30.43,WSW,247,0.0,0.0,78,0.00,,,0.00,WUHU21623XXSP,2013-09-03 04:16:00,
2013-09-03 00:21:00,57.4,50.5,30.43,WSW,247,0.0,0.0,78,0.00,,,0.00,WUHU21623XXSP,2013-09-03 04:21:00,
2013-09-03 00:27:00,57.4,50.5,30.43,WSW,247,0.0,0.0,78,0.00,,,0.00,WUHU21623XXSP,2013-09-03 04:27:00,
2013-09-03 00:32:00,57.4,50.5,30.43,West,270,0.0,0.0,78,0.00,,,0.00,WUHU21623XXSP,2013-09-03 04:32:00,
2013-09-03 00:37:00,57.2,50.4,30.43,NNE,22,0.0,0.0,78,0.00,,,0.00,WUHU21623XXSP,2013-09-03 04:37:00,
2013-09-03 00:42:00,57.0,50.5,30.43,WSW,247,0.0,0.0,79,0.00,,,0.00,WUHU21623XXSP,2013-09-03 04:42:00,
2013-09-03 00:47:00,57.0,50.5,30.42,WSW,247,0.0,0.0,79,0.00,,,0.00,WUHU21623XXSP,2013-09-03 04:47:00,
2013-09-03 00:52:00,57.0,50.5,30.43,WSW,247,0.0,0.0,79,0.00,,,0.00,WUHU21623XXSP,2013-09-03 04:52:00,
2013-09-03 00:57:00,57.0,50.5,30.43,SSW,202,0.0,0.0,79,0.00,,,0.00,WUHU21623XXSP,2013-09-03 04:57:00,
2013-09-03 01:02:00,57.0,50.5,30.43,WSW,247,0.0,0.0,79,0.00,,,0.00,WUHU21623XXSP,2013-09-03 05:02:00,
2013-09-03 01:07:00,57.0,50.5,30.43,ESE,112,0.0,0.0,79,0.00,,,0.00,WUHU21623XXSP,2013-09-03 05:07:00,
2013-09-03 01:12:00,57.0,50.5,30.42,NW,315,0.0,0.0,79,0.00,,,0.00,WUHU21623XXSP,2013-09-03 05:12:00,
2013-09-03 01:17:00,57.0,50.5,30.42,SW,225,0.0,0.0,79,0.00,,,0.00,WUHU21623XXSP,2013-09-03 05:17:00,
2013-09-03 01:22:00,57.0,50.5,30.42,SSW,202,0.0,0.0,79,0.00,,,0.00,WUHU21623XXSP,2013-09-03 05:22:00,
2013-09-03 01:27:00,57.0,50.5,30.42,SW,225,0.0,0.0,79,0.00,,,0.00,WUHU21623XXSP,2013-09-03 05:27:00,
2013-09-03 01:32:00,57.0,50.5,30.42,SSW,202,0.0,0.0,79,0.00,,,0.00,WUHU21623XXSP,2013-09-03 05:32:00,
2013-09-03 01:37:00,57.0,50.5,30.43,WSW,247,0.0,0.0,79,0.00,,,0.00,WUHU21623XXSP,2013-09-03 05:37:00,
2013-09-03 01:42:00,57.0,50.5,30.42,WSW,247,0.0,0.0,79,0.00,,,0.00,WUHU21623XXSP,2013-09-03 05:42:00,
2013-09-03 01:47:00,56.8,50.4,30.43,North,0,0.0,0.0,79,0.00,,,0.00,WUHU21623XXSP,2013-09-03 05:47:00,
2013-09-03 01:52:00,56.8,50.4,30.42,NE,45,0.0,0.0,79,0.00,,,0.00,WUHU21623XXSP,2013-09-03 05:52:00,
2013-09-03 01:57:00,57.0,50.5,30.43,NNE,22,0.0,0.0,79,0.00,,,0.00,WUHU21623XXSP,2013-09-03 05:57:00,
2013-09-03 02:02:00,56.8,50.4,30.43,SSW,202,0.0,0.0,79,0.00,,,0.00,WUHU21623XXSP,2013-09-03 06:02:00,
2013-09-03 02:07:00,56.8,50.4,30.42,SE,135,0.0,0.0,79,0.00,,,0.00,WUHU21623XXSP,2013-09-03 06:07:00,
2013-09-03 02:12:00,56.8,50.4,30.42,West,270,0.0,0.0,79,0.00,,,0.00,WUHU21623XXSP,2013-09-03 06:12:00,
2013-09-03 02:17:00,56.8,50.4,30.42,West,270,0.0,0.0,79,0.00,,,0.00,WUHU21623XXSP,2013-09-03 06:17:00,
2013-09-03 02:22:00,56.8,50.4,30.43,SW,225,0.0,0.0,79,0.00,,,0.00,WUHU21623XXSP,2013-09-03 06:22:00,
2013-09-03 02:27:00,56.8,50.7,30.43,SW,225,0.0,0.0,80,0.00,,,0.00,WUHU21623XXSP,2013-09-03 06:27:00,
2013-09-03 02:32:00,56.8,50.7,30.42,South,180,0.0,0.0,80,0.00,,,0.00,WUHU21623XXSP,2013-09-03 06:32:00,
2013-09-03 02:37:00,56.8,50.7,30.41,SW,225,0.0,0.0,80,0.00,,,0.00,WUHU21623XXSP,2013-09-03 06:37:00,
2013-09-03 02:42:00,56.8,50.4,30.41,SW,225,0.0,0.0,79,0.00,,,0.00,WUHU21623XXSP,2013-09-03 06:42:00,
2013-09-03 02:47:00,56.8,50.4,30.42,SW,225,0.0,0.0,79,0.00,,,0.00,WUHU21623XXSP,2013-09-03 06:47:00,
2013-09-03 02:52:00,56.8,50.4,30.42,WSW,247,0.0,0.0,79,0.00,,,0.00,WUHU21623XXSP,2013-09-03 06:52:00,
2013-09-03 02:57:00,56.8,50.4,30.42,NNE,22,0.0,0.0,79,0.00,,,0.00,WUHU21623XXSP,2013-09-03 06:57:00,
2013-09-03 03:02:00,57.0,50.5,30.42,NNE,22,0.0,0.0,79,0.00,,,0.00,WUHU21623XXSP,2013-09-03 07:02:00,
2013-09-03 03:07:00,57.0,50.9,30.42,ENE,67,0.0,0.9,80,0.00,,,0.00,WUHU21623XXSP,2013-09-03 07:07:00,
2013-09-03 03:12:00,56.8,50.7,30.41,North,0,0.0,0.9,80,0.00,,,0.00,WUHU21623XXSP,2013-09-03 07:12:00,
2013-09-03 03:17:00,57.0,50.9,30.42,NNE,22,0.0,0.0,80,0.00,,,0.00,WUHU21623XXSP,2013-09-03 07:17:00,
2013-09-03 03:22:00,56.8,50.7,30.42,East,90,0.0,0.0,80,0.00,,,0.00,WUHU21623XXSP,2013-09-03 07:22:00,
2013-09-03 03:27:00,56.8,50.7,30.42,East,90,0.0,0.0,80,0.00,,,0.00,WUHU21623XXSP,2013-09-03 07:27:00,
2013-09-03 03:32:00,56.8,50.7,30.42,ESE,112,0.0,0.0,80,0.00,,,0.00,WUHU21623XXSP,2013-09-03 07:32:00,
2013-09-03 03:37:00,56.8,50.7,30.42,ESE,112,0.0,0.0,80,0.00,,,0.00,WUHU21623XXSP,2013-09-03 07:37:00,
2013-09-03 03:42:00,56.8,50.7,30.42,SE,135,0.0,0.0,80,0.00,,,0.00,WUHU21623XXSP,2013-09-03 07:42:00,
2013-09-03 03:47:00,56.8,50.7,30.42,SSW,202,0.0,0.0,80,0.00,,,0.00,WUHU21623XXSP,2013-09-03 07:47:00,
2013-09-03 03:52:00,56.8,50.7,30.42,SSW,202,0.0,0.0,80,0.00,,,0.00,WUHU21623XXSP,2013-09-03 07:52:00,
2013-09-03 03:57:00,56.8,50.7,30.42,SSW,202,0.0,0.0,80,0.00,,,0.00,WUHU21623XXSP,2013-09-03 07:57:00,
2013-09-03 04:02:00,56.8,50.7,30.42,SSW,202,0.0,0.0,80,0.00,,,0.00,WUHU21623XXSP,2013-09-03 08:02:00,
2013-09-03 04:07:00,56.8,50.7,30.42,SW,225,0.0,0.0,80,0.00,,,0.00,WUHU21623XXSP,2013-09-03 08:07:00,
2013-09-03 04:12:00,56.8,50.7,30.43,SW,225,0.0,0.0,80,0.00,,,0.00,WUHU21623XXSP,2013-09-03 08:12:00,
2013-09-03 04:17:00,56.8,50.7,30.43,SW,225,0.0,0.0,80,0.00,,,0.00,WUHU21623XXSP,2013-09-03 08:17:00,
2013-09-03 04:22:00,56.8,50.7,30.43,NNW,337,0.0,0.0,80,0.00,,,0.00,WUHU21623XXSP,2013-09-03 08:22:00,
2013-09-03 04:27:00,56.8,50.7,30.43,WSW,247,0.0,0.0,80,0.00,,,0.00,WUHU21623XXSP,2013-09-03 08:27:00,
2013-09-03 04:32:00,56.8,51.0,30.44,West,270,0.0,0.0,81,0.00,,,0.00,WUHU21623XXSP,2013-09-03 08:32:00,
2013-09-03 04:37:00,56.8,51.0,30.43,NNW,337,0.0,0.0,81,0.00,,,0.00,WUHU21623XXSP,2013-09-03 08:37:00,
2013-09-03 04:42:00,56.8,51.0,30.43,NNW,337,0.0,0.0,81,0.00,,,0.00,WUHU21623XXSP,2013-09-03 08:42:00,
2013-09-03 04:47:00,56.8,51.0,30.43,NNW,337,0.0,0.0,81,0.00,,,0.00,WUHU21623XXSP,2013-09-03 08:47:00,
2013-09-03 04:52:00,56.8,51.0,30.43,NNW,337,0.0,0.0,81,0.00,,,0.00,WUHU21623XXSP,2013-09-03 08:52:00,
2013-09-03 04:57:00,56.8,51.0,30.43,West,270,0.0,0.0,81,0.00,,,0.00,WUHU21623XXSP,2013-09-03 08:57:00,
2013-09-03 05:02:00,56.8,51.0,30.43,West,270,0.0,0.0,81,0.00,,,0.00,WUHU21623XXSP,2013-09-03 09:02:00,
2013-09-03 05:07:00,56.7,50.9,30.44,SW,225,0.0,0.0,81,0.00,,,0.00,WUHU21623XXSP,2013-09-03 09:07:00,
2013-09-03 05:12:00,56.8,51.0,30.44,SW,225,0.0,0.0,81,0.00,,,0.00,WUHU21623XXSP,2013-09-03 09:12:00,
2013-09-03 05:17:00,56.7,50.9,30.44,SW,225,0.0,0.0,81,0.00,,,0.00,WUHU21623XXSP,2013-09-03 09:17:00,
2013-09-03 05:22:00,56.7,50.9,30.45,SW,225,0.0,0.0,81,0.00,,,0.00,WUHU21623XXSP,2013-09-03 09:22:00,
2013-09-03 05:27:00,56.8,51.0,30.44,West,270,0.0,0.0,81,0.00,,,0.00,WUHU21623XXSP,2013-09-03 09:27:00,
2013-09-03 05:32:00,56.8,51.0,30.44,West,270,0.0,0.0,81,0.00,,,0.00,WUHU21623XXSP,2013-09-03 09:32:00,
2013-09-03 05:37:00,56.8,51.0,30.44,WSW,247,0.0,0.0,81,0.00,,,0.00,WUHU21623XXSP,2013-09-03 09:37:00,
2013-09-03 05:42:00,56.8,51.4,30.44,WSW,247,0.0,0.0,82,0.00,,,0.00,WUHU21623XXSP,2013-09-03 09:42:00,
2013-09-03 05:47:00,56.8,51.4,30.44,WSW,247,0.0,0.0,82,0.00,,,0.00,WUHU21623XXSP,2013-09-03 09:47:00,
2013-09-03 05:52:00,56.7,51.2,30.44,WSW,247,0.0,0.0,82,0.00,,,0.00,WUHU21623XXSP,2013-09-03 09:52:00,
2013-09-03 05:57:00,56.5,51.0,30.44,WSW,247,0.0,0.0,82,0.00,,,0.00,WUHU21623XXSP,2013-09-03 09:57:00,
2013-09-03 06:02:00,56.5,51.0,30.45,WSW,247,0.0,0.0,82,0.00,,,0.00,WUHU21623XXSP,2013-09-03 10:02:00,
2013-09-03 06:07:00,56.1,50.6,30.45,WSW,247,0.0,0.0,82,0.00,,,0.00,WUHU21623XXSP,2013-09-03 10:07:00,
2013-09-03 06:12:00,56.1,50.6,30.45,WSW,247,0.0,0.0,82,0.00,,,0.00,WUHU21623XXSP,2013-09-03 10:12:00,
2013-09-03 06:17:00,55.9,50.5,30.45,WSW,247,0.0,0.0,82,0.00,,,0.00,WUHU21623XXSP,2013-09-03 10:17:00,
2013-09-03 06:22:00,55.6,50.1,30.45,WSW,247,0.0,0.0,82,0.00,,,0.00,WUHU21623XXSP,2013-09-03 10:22:00,
2013-09-03 06:27:00,55.4,49.9,30.45,WSW,247,0.0,0.0,82,0.00,,,0.00,WUHU21623XXSP,2013-09-03 10:27:00,
2013-09-03 06:32:00,55.2,49.7,30.46,WSW,247,0.0,0.0,82,0.00,,,0.00,WUHU21623XXSP,2013-09-03 10:32:00,
2013-09-03 06:37:00,55.0,49.9,30.46,West,270,0.0,0.0,83,0.00,,,0.00,WUHU21623XXSP,2013-09-03 10:37:00,
2013-09-03 06:42:00,54.7,49.6,30.46,West,270,0.0,0.0,83,0.00,,,0.00,WUHU21623XXSP,2013-09-03 10:42:00,
2013-09-03 06:47:00,54.7,49.6,30.46,West,270,0.0,0.0,83,0.00,,,0.00,WUHU21623XXSP,2013-09-03 10:47:00,
2013-09-03 06:52:00,54.5,49.4,30.46,West,270,0.0,0.0,83,0.00,,,0.00,WUHU21623XXSP,2013-09-03 10:52:00,
2013-09-03 06:57:00,54.3,49.2,30.47,West,270,0.0,0.0,83,0.00,,,0.00,WUHU21623XXSP,2013-09-03 10:57:00,
2013-09-03 07:02:00,54.3,49.2,30.47,West,270,0.0,0.0,83,0.00,,,0.00,WUHU21623XXSP,2013-09-03 11:02:00,
2013-09-03 07:07:00,54.0,49.2,30.47,West,270,0.0,0.0,84,0.00,,,0.00,WUHU21623XXSP,2013-09-03 11:07:00,
2013-09-03 07:12:00,54.0,49.2,30.47,West,270,0.0,0.0,84,0.00,,,0.00,WUHU21623XXSP,2013-09-03 11:12:00,
2013-09-03 07:17:00,53.8,49.0,30.47,WNW,292,0.0,0.0,84,0.00,,,0.00,WUHU21623XXSP,2013-09-03 11:17:00,
2013-09-03 07:22:00,53.8,49.0,30.48,WNW,292,0.0,0.0,84,0.00,,,0.00,WUHU21623XXSP,2013-09-03 11:22:00,
2013-09-03 07:27:00,53.4,49.0,30.48,WNW,292,0.0,0.0,85,0.00,,,0.00,WUHU21623XXSP,2013-09-03 11:27:00,
2013-09-03 07:32:00,53.4,49.0,30.48,WSW,247,0.0,0.0,85,0.00,,,0.00,WUHU21623XXSP,2013-09-03 11:32:00,
2013-09-03 07:37:00,53.4,49.0,30.48,WNW,292,0.0,0.0,85,0.00,,,0.00,WUHU21623XXSP,2013-09-03 11:37:00,
2013-09-03 07:42:00,53.4,49.0,30.49,SW,225,0.0,0.0,85,0.00,,,0.00,WUHU21623XXSP,2013-09-03 11:42:00,
2013-09-03 07:47:00,53.8,49.7,30.49,SW,225,0.0,0.0,86,0.00,,,0.00,WUHU21623XXSP,2013-09-03 11:47:00,
2013-09-03 07:52:00,53.8,49.7,30.49,SSE,157,0.0,0.0,86,0.00,,,0.00,WUHU21623XXSP,2013-09-03 11:52:00,
2013-09-03 07:57:00,53.8,49.7,30.49,SSE,157,0.0,0.0,86,0.00,,,0.00,WUHU21623XXSP,2013-09-03 11:57:00,
2013-09-03 08:02:00,54.0,49.8,30.50,East,90,0.0,0.0,86,0.00,,,0.00,WUHU21623XXSP,2013-09-03 12:02:00,
2013-09-03 08:07:00,54.1,50.0,30.50,South,180,0.0,0.0,86,0.00,,,0.00,WUHU21623XXSP,2013-09-03 12:07:00,
2013-09-03 08:12:00,54.1,50.0,30.50,WSW,247,0.0,0.0,86,0.00,,,0.00,WUHU21623XXSP,2013-09-03 12:12:00,
2013-09-03 08:17:00,54.5,50.4,30.50,SW,225,0.0,0.0,86,0.00,,,0.00,WUHU21623XXSP,2013-09-03 12:17:00,
2013-09-03 08:22:00,54.7,50.5,30.50,West,270,0.0,0.0,86,0.00,,,0.00,WUHU21623XXSP,2013-09-03 12:22:00,
2013-09-03 08:27:00,55.0,50.9,30.50,West,270,0.0,0.0,86,0.00,,,0.00,WUHU21623XXSP,2013-09-03 12:27:00,
2013-09-03 08:32:00,55.2,51.0,30.50,WSW,247,0.0,0.0,86,0.00,,,0.00,WUHU21623XXSP,2013-09-03 12:32:00,
2013-09-03 08:37:00,55.2,51.0,30.50,SW,225,0.0,0.0,86,0.00,,,0.00,WUHU21623XXSP,2013-09-03 12:37:00,
2013-09-03 08:42:00,55.4,50.7,30.50,North,0,0.0,0.0,85,0.00,,,0.00,WUHU21623XXSP,2013-09-03 12:42:00,
2013-09-03 08:47:00,55.9,51.4,30.50,WNW,292,0.0,0.0,85,0.00,,,0.00,WUHU21623XXSP,2013-09-03 12:47:00,
2013-09-03 08:52:00,56.1,51.6,30.50,West,270,0.0,0.0,85,0.00,,,0.00,WUHU21623XXSP,2013-09-03 12:52:00,
2013-09-03 08:57:00,56.3,51.8,30.51,WSW,247,0.0,0.0,85,0.00,,,0.00,WUHU21623XXSP,2013-09-03 12:57:00,
2013-09-03 09:02:00,56.7,51.8,30.51,South,180,0.0,2.2,84,0.00,,,0.00,WUHU21623XXSP,2013-09-03 13:02:00,
2013-09-03 09:07:00,56.8,52.0,30.51,North,0,0.0,2.2,84,0.00,,,0.00,WUHU21623XXSP,2013-09-03 13:07:00,
2013-09-03 09:12:00,56.8,51.7,30.50,NNE,22,0.0,0.0,83,0.00,,,0.00,WUHU21623XXSP,2013-09-03 13:12:00,
2013-09-03 09:17:00,57.2,52.1,30.51,SW,225,0.0,0.0,83,0.00,,,0.00,WUHU21623XXSP,2013-09-03 13:17:00,
2013-09-03 09:22:00,57.4,52.2,30.51,WSW,247,0.0,0.0,83,0.00,,,0.00,WUHU21623XXSP,2013-09-03 13:22:00,
2013-09-03 09:27:00,57.6,51.9,30.51,SW,225,0.0,0.0,83,0.00,,,0.00,WUHU21623XXSP,2013-09-03 13:27:00,
2013-09-03 09:32:00,57.9,52.6,30.51,West,270,0.0,0.0,83,0.00,,,0.00,WUHU21623XXSP,2013-09-03 13:32:00,
2013-09-03 09:37:00,57.9,52.4,30.51,West,270,0.0,0.0,82,0.00,,,0.00,WUHU21623XXSP,2013-09-03 13:37:00,
2013-09-03 09:42:00,58.3,52.8,30.51,East,90,0.0,0.0,82,0.00,,,0.00,WUHU21623XXSP,2013-09-03 13:42:00,
2013-09-03 09:47:00,58.6,52.8,30.51,West,270,0.0,0.0,81,0.00,,,0.00,WUHU21623XXSP,2013-09-03 13:47:00,
2013-09-03 09:52:00,58.8,52.7,30.51,WSW,247,0.0,0.0,80,0.00,,,0.00,WUHU21623XXSP,2013-09-03 13:52:00,
2013-09-03 09:57:00,59.2,53.1,30.51,WSW,247,0.0,0.0,80,0.00,,,0.00,WUHU21623XXSP,2013-09-03 13:57:00,
2013-09-03 10:02:00,59.5,53.4,30.51,WSW,247,0.0,0.0,80,0.00,,,0.00,WUHU21623XXSP,2013-09-03 14:02:00,
2013-09-03 10:07:00,59.5,53.4,30.51,WSW,247,0.0,0.0,80,0.00,,,0.00,WUHU21623XXSP,2013-09-03 14:07:00,
2013-09-03 10:12:00,59.5,53.4,30.51,WSW,247,0.0,0.0,80,0.00,,,0.00,WUHU21623XXSP,2013-09-03 14:12:00,
2013-09-03 10:17:00,60.4,53.6,30.51,West,270,0.0,0.0,78,0.00,,,0.00,WUHU21623XXSP,2013-09-03 14:17:00,
2013-09-03 10:22:00,60.6,53.8,30.51,West,270,0.0,0.0,78,0.00,,,0.00,WUHU21623XXSP,2013-09-03 14:22:00,
2013-09-03 10:27:00,60.6,53.4,30.51,NE,45,0.0,3.1,76,0.00,,,0.00,WUHU21623XXSP,2013-09-03 14:27:00,
2013-09-03 10:32:00,61.0,53.4,30.51,WSW,247,0.0,3.1,76,0.00,,,0.00,WUHU21623XXSP,2013-09-03 14:32:00,
2013-09-03 10:37:00,61.3,53.6,30.51,WSW,247,0.0,0.0,76,0.00,,,0.00,WUHU21623XXSP,2013-09-03 14:37:00,
2013-09-03 10:42:00,61.5,53.5,30.51,West,270,0.0,0.0,75,0.00,,,0.00,WUHU21623XXSP,2013-09-03 14:42:00,
2013-09-03 10:47:00,61.9,53.5,30.51,SSE,157,2.5,2.5,74,0.00,,,0.00,WUHU21623XXSP,2013-09-03 14:47:00,
2013-09-03 10:52:00,62.2,53.8,30.51,WSW,247,0.0,2.5,74,0.00,,,0.00,WUHU21623XXSP,2013-09-03 14:52:00,
2013-09-03 10:57:00,62.4,53.6,30.51,NW,315,0.0,0.0,73,0.00,,,0.00,WUHU21623XXSP,2013-09-03 14:57:00,
2013-09-03 11:02:00,62.8,53.6,30.51,SW,225,0.0,0.0,72,0.00,,,0.00,WUHU21623XXSP,2013-09-03 15:02:00,
2013-09-03 11:07:00,63.0,53.6,30.51,SSW,202,0.0,0.0,72,0.00,,,0.00,WUHU21623XXSP,2013-09-03 15:07:00,
2013-09-03 11:12:00,63.1,54.0,30.51,SSW,202,0.0,0.0,72,0.00,,,0.00,WUHU21623XXSP,2013-09-03 15:12:00,
2013-09-03 11:17:00,63.5,54.1,30.51,West,270,0.0,0.0,72,0.00,,,0.00,WUHU21623XXSP,2013-09-03 15:17:00,
2013-09-03 11:22:00,63.7,54.3,30.51,WSW,247,0.0,0.0,72,0.00,,,0.00,WUHU21623XXSP,2013-09-03 15:22:00,
2013-09-03 11:27:00,64.0,54.9,30.51,NNW,337,0.0,0.0,72,0.00,,,0.00,WUHU21623XXSP,2013-09-03 15:27:00,
2013-09-03 11:32:00,64.2,54.7,30.51,WNW,292,0.0,0.0,71,0.00,,,0.00,WUHU21623XXSP,2013-09-03 15:32:00,
2013-09-03 11:37:00,64.4,54.7,30.51,North,0,0.0,0.0,71,0.00,,,0.00,WUHU21623XXSP,2013-09-03 15:37:00,
2013-09-03 11:42:00,64.6,54.7,30.51,NNW,337,0.0,0.0,70,0.00,,,0.00,WUHU21623XXSP,2013-09-03 15:42:00,
2013-09-03 11:47:00,64.9,55.0,30.51,NNE,22,3.8,3.8,70,0.00,,,0.00,WUHU21623XXSP,2013-09-03 15:47:00,
2013-09-03 11:52:00,65.1,54.7,30.51,SSW,202,0.0,3.8,69,0.00,,,0.00,WUHU21623XXSP,2013-09-03 15:52:00,
2013-09-03 11:57:00,65.5,55.5,30.51,West,270,0.0,0.0,70,0.00,,,0.00,WUHU21623XXSP,2013-09-03 15:57:00,
2013-09-03 12:02:00,65.8,55.4,30.51,West,270,0.0,0.0,69,0.00,,,0.00,WUHU21623XXSP,2013-09-03 16:02:00,
2013-09-03 12:07:00,66.0,55.1,30.51,South,180,0.0,0.0,68,0.00,,,0.00,WUHU21623XXSP,2013-09-03 16:07:00,
2013-09-03 12:12:00,66.4,55.0,30.50,NNE,22,0.0,0.0,67,0.00,,,0.00,WUHU21623XXSP,2013-09-03 16:12:00,
2013-09-03 12:17:00,66.6,54.8,30.50,NNE,22,0.0,2.2,66,0.00,,,0.00,WUHU21623XXSP,2013-09-03 16:17:00,
2013-09-03 12:22:00,66.7,55.0,30.50,West,270,0.0,2.2,66,0.00,,,0.00,WUHU21623XXSP,2013-09-03 16:22:00,
2013-09-03 12:27:00,66.9,55.1,30.50,West,270,0.0,0.0,66,0.00,,,0.00,WUHU21623XXSP,2013-09-03 16:27:00,
2013-09-03 12:32:00,67.3,55.1,30.50,WSW,247,0.0,0.0,65,0.00,,,0.00,WUHU21623XXSP,2013-09-03 16:32:00,
2013-09-03 12:37:00,67.3,54.6,30.50,West,270,0.0,2.9,64,0.00,,,0.00,WUHU21623XXSP,2013-09-03 16:37:00,
2013-09-03 12:42:00,67.6,55.4,30.49,ENE,67,2.2,2.9,65,0.00,,,0.00,WUHU21623XXSP,2013-09-03 16:42:00,
2013-09-03 12:47:00,67.8,55.1,30.50,SW,225,0.0,2.2,64,0.00,,,0.00,WUHU21623XXSP,2013-09-03 16:47:00,
2013-09-03 12:52:00,67.8,55.1,30.49,South,180,0.0,0.0,64,0.00,,,0.00,WUHU21623XXSP,2013-09-03 16:52:00,
2013-09-03 12:57:00,68.2,55.5,30.50,NE,45,3.6,3.6,64,0.00,,,0.00,WUHU21623XXSP,2013-09-03 16:57:00,
2013-09-03 13:02:00,68.4,55.2,30.49,ENE,67,0.0,3.6,63,0.00,,,0.00,WUHU21623XXSP,2013-09-03 17:02:00,
2013-09-03 13:07:00,68.5,55.4,30.50,WSW,247,0.0,0.0,63,0.00,,,0.00,WUHU21623XXSP,2013-09-03 17:07:00,
2013-09-03 13:13:00,68.7,55.2,30.49,NNE,22,0.0,0.0,62,0.00,,,0.00,WUHU21623XXSP,2013-09-03 17:13:00,
2013-09-03 13:18:00,68.7,55.2,30.49,WSW,247,0.0,0.0,62,0.00,,,0.00,WUHU21623XXSP,2013-09-03 17:18:00,
2013-09-03 13:23:00,69.1,55.5,30.49,ENE,67,0.0,0.0,62,0.00,,,0.00,WUHU21623XXSP,2013-09-03 17:23:00,
2013-09-03 13:28:00,69.4,55.9,30.49,West,270,0.0,0.0,62,0.00,,,0.00,WUHU21623XXSP,2013-09-03 17:28:00,
2013-09-03 13:33:00,69.6,56.0,30.49,NNE,22,4.3,4.3,62,0.00,,,0.00,WUHU21623XXSP,2013-09-03 17:33:00,
2013-09-03 13:38:00,70.0,56.4,30.48,SSW,202,0.0,4.3,62,0.00,,,0.00,WUHU21623XXSP,2013-09-03 17:38:00,
2013-09-03 13:43:00,70.2,55.6,30.49,NNE,22,0.0,4.3,60,0.00,,,0.00,WUHU21623XXSP,2013-09-03 17:43:00,
2013-09-03 13:48:00,70.3,55.4,30.48,ENE,67,0.0,2.9,59,0.00,,,0.00,WUHU21623XXSP,2013-09-03 17:48:00,
2013-09-03 13:53:00,70.5,55.5,30.49,West,270,1.8,2.9,59,0.00,,,0.00,WUHU21623XXSP,2013-09-03 17:53:00,
2013-09-03 13:58:00,70.5,55.5,30.48,West,270,0.0,4.0,59,0.00,,,0.00,WUHU21623XXSP,2013-09-03 17:58:00,
2013-09-03 14:03:00,70.7,55.7,30.48,SSW,202,0.0,4.0,59,0.00,,,0.00,WUHU21623XXSP,2013-09-03 18:03:00,
2013-09-03 14:08:00,70.9,55.9,30.48,SSE,157,0.0,0.0,59,0.00,,,0.00,WUHU21623XXSP,2013-09-03 18:08:00,
2013-09-03 14:13:00,71.2,56.2,30.48,NW,315,0.0,0.0,59,0.00,,,0.00,WUHU21623XXSP,2013-09-03 18:13:00,
2013-09-03 14:18:00,71.4,56.4,30.48,ENE,67,0.0,0.0,59,0.00,,,0.00,WUHU21623XXSP,2013-09-03 18:18:00,
2013-09-03 14:23:00,71.8,56.2,30.48,WSW,247,0.0,0.0,58,0.00,,,0.00,WUHU21623XXSP,2013-09-03 18:23:00,
2013-09-03 14:28:00,72.0,55.8,30.48,NNE,22,0.0,0.0,57,0.00,,,0.00,WUHU21623XXSP,2013-09-03 18:28:00,
2013-09-03 14:33:00,72.1,56.5,30.48,WSW,247,0.0,0.0,58,0.00,,,0.00,WUHU21623XXSP,2013-09-03 18:33:00,
2013-09-03 14:38:00,72.3,55.7,30.48,WNW,292,0.0,1.6,56,0.00,,,0.00,WUHU21623XXSP,2013-09-03 18:38:00,
2013-09-03 14:43:00,72.3,55.1,30.48,SW,225,0.0,1.6,55,0.00,,,0.00,WUHU21623XXSP,2013-09-03 18:43:00,
2013-09-03 14:48:00,72.5,55.8,30.48,SW,225,0.0,0.0,56,0.00,,,0.00,WUHU21623XXSP,2013-09-03 18:48:00,
2013-09-03 14:53:00,72.7,55.0,30.47,WSW,247,0.0,0.0,54,0.00,,,0.00,WUHU21623XXSP,2013-09-03 18:53:00,
2013-09-03 14:58:00,72.7,54.5,30.48,SSW,202,0.0,2.2,53,0.00,,,0.00,WUHU21623XXSP,2013-09-03 18:58:00,
2013-09-03 15:03:00,72.9,54.6,30.47,NW,315,0.0,2.2,53,0.00,,,0.00,WUHU21623XXSP,2013-09-03 19:03:00,
2013-09-03 15:08:00,73.2,55.0,30.46,West,270,0.0,0.0,53,0.00,,,0.00,WUHU21623XXSP,2013-09-03 19:08:00,
2013-09-03 15:13:00,73.6,55.3,30.47,ENE,67,0.0,0.0,53,0.00,,,0.00,WUHU21623XXSP,2013-09-03 19:13:00,
2013-09-03 15:18:00,73.6,54.8,30.47,WNW,292,0.0,0.0,52,0.00,,,0.00,WUHU21623XXSP,2013-09-03 19:18:00,
2013-09-03 15:23:00,73.9,54.6,30.47,South,180,0.0,0.0,51,0.00,,,0.00,WUHU21623XXSP,2013-09-03 19:23:00,
2013-09-03 15:28:00,74.1,55.3,30.46,ESE,112,0.0,0.0,52,0.00,,,0.00,WUHU21623XXSP,2013-09-03 19:28:00,
2013-09-03 15:33:00,74.3,55.5,30.47,West,270,0.0,0.0,52,0.00,,,0.00,WUHU21623XXSP,2013-09-03 19:33:00,
2013-09-03 15:38:00,74.5,55.7,30.47,WNW,292,0.0,0.0,52,0.00,,,0.00,WUHU21623XXSP,2013-09-03 19:38:00,
2013-09-03 15:43:00,74.8,56.0,30.46,NNE,22,0.0,0.0,52,0.00,,,0.00,WUHU21623XXSP,2013-09-03 19:43:00,
2013-09-03 15:48:00,74.8,56.0,30.46,SW,225,2.0,2.0,52,0.00,,,0.00,WUHU21623XXSP,2013-09-03 19:48:00,
2013-09-03 15:53:00,74.8,56.0,30.46,NNW,337,0.0,2.0,52,0.00,,,0.00,WUHU21623XXSP,2013-09-03 19:53:00,
2013-09-03 15:58:00,75.0,55.7,30.46,WSW,247,0.0,0.0,51,0.00,,,0.00,WUHU21623XXSP,2013-09-03 19:58:00,
2013-09-03 16:03:00,75.0,55.7,30.46,NE,45,0.0,0.0,51,0.00,,,0.00,WUHU21623XXSP,2013-09-03 20:03:00,
2013-09-03 16:08:00,75.2,55.9,30.46,NE,45,3.6,3.6,51,0.00,,,0.00,WUHU21623XXSP,2013-09-03 20:08:00,
2013-09-03 16:13:00,75.2,55.9,30.46,NNW,337,0.0,3.6,51,0.00,,,0.00,WUHU21623XXSP,2013-09-03 20:13:00,
2013-09-03 16:18:00,75.4,55.6,30.46,SW,225,0.0,0.0,50,0.00,,,0.00,WUHU21623XXSP,2013-09-03 20:18:00,
2013-09-03 16:23:00,75.4,55.6,30.45,WSW,247,0.0,0.0,50,0.00,,,0.00,WUHU21623XXSP,2013-09-03 20:23:00,
2013-09-03 16:28:00,75.6,56.2,30.45,SSW,202,0.0,0.0,51,0.00,,,0.00,WUHU21623XXSP,2013-09-03 20:28:00,
2013-09-03 16:33:00,75.9,56.6,30.45,SSW,202,0.0,0.0,51,0.00,,,0.00,WUHU21623XXSP,2013-09-03 20:33:00,
2013-09-03 16:38:00,75.9,55.4,30.45,SSW,202,0.0,0.0,49,0.00,,,0.00,WUHU21623XXSP,2013-09-03 20:38:00,
2013-09-03 16:43:00,75.9,55.4,30.45,South,180,0.0,0.0,49,0.00,,,0.00,WUHU21623XXSP,2013-09-03 20:43:00,
2013-09-03 16:48:00,75.9,55.4,30.45,West,270,0.0,0.0,49,0.00,,,0.00,WUHU21623XXSP,2013-09-03 20:48:00,
2013-09-03 16:53:00,75.9,54.8,30.45,SSE,157,1.6,5.1,48,0.00,,,0.00,WUHU21623XXSP,2013-09-03 20:53:00,
2013-09-03 16:58:00,75.6,53.9,30.46,South,180,0.0,5.1,47,0.00,,,0.00,WUHU21623XXSP,2013-09-03 20:58:00,
2013-09-03 17:03:00,75.7,54.7,30.46,SSW,202,0.0,1.6,48,0.00,,,0.00,WUHU21623XXSP,2013-09-03 21:03:00,
2013-09-03 17:08:00,75.7,54.0,30.45,WSW,247,0.0,0.0,47,0.00,,,0.00,WUHU21623XXSP,2013-09-03 21:08:00,
2013-09-03 17:13:00,75.6,54.5,30.45,West,270,0.0,0.0,48,0.00,,,0.00,WUHU21623XXSP,2013-09-03 21:13:00,
2013-09-03 17:18:00,75.7,55.3,30.45,WNW,292,0.0,0.0,49,0.00,,,0.00,WUHU21623XXSP,2013-09-03 21:18:00,
2013-09-03 17:23:00,75.9,54.8,30.45,SSW,202,0.0,0.0,48,0.00,,,0.00,WUHU21623XXSP,2013-09-03 21:23:00,
2013-09-03 17:28:00,75.7,53.4,30.45,SW,225,0.0,0.0,46,0.00,,,0.00,WUHU21623XXSP,2013-09-03 21:28:00,
2013-09-03 17:33:00,75.7,54.0,30.45,West,270,0.0,0.0,47,0.00,,,0.00,WUHU21623XXSP,2013-09-03 21:33:00,
2013-09-03 17:38:00,75.9,53.6,30.45,NE,45,0.0,0.0,46,0.00,,,0.00,WUHU21623XXSP,2013-09-03 21:38:00,
2013-09-03 17:43:00,75.7,54.0,30.45,South,180,0.0,0.0,47,0.00,,,0.00,WUHU21623XXSP,2013-09-03 21:43:00,
2013-09-03 17:48:00,75.7,54.0,30.45,West,270,0.0,0.0,47,0.00,,,0.00,WUHU21623XXSP,2013-09-03 21:48:00,
2013-09-03 17:53:00,75.7,54.7,30.45,West,270,0.0,0.0,48,0.00,,,0.00,WUHU21623XXSP,2013-09-03 21:53:00,
2013-09-03 17:58:00,75.6,53.9,30.45,WSW,247,0.0,0.0,47,0.00,,,0.00,WUHU21623XXSP,2013-09-03 21:58:00,
2013-09-03 18:03:00,75.0,53.4,30.45,ESE,112,0.0,0.0,47,0.00,,,0.00,WUHU21623XXSP,2013-09-03 22:03:00,
2013-09-03 18:08:00,74.8,53.2,30.45,North,0,0.0,0.0,48,0.00,,,0.00,WUHU21623XXSP,2013-09-03 22:08:00,
2013-09-03 18:13:00,74.3,53.3,30.45,North,0,0.0,0.0,48,0.00,,,0.00,WUHU21623XXSP,2013-09-03 22:13:00,
2013-09-03 18:18:00,73.9,52.9,30.44,North,0,0.0,0.0,48,0.00,,,0.00,WUHU21623XXSP,2013-09-03 22:18:00,
2013-09-03 18:23:00,73.6,52.6,30.45,NNW,337,0.0,0.0,48,0.00,,,0.00,WUHU21623XXSP,2013-09-03 22:23:00,
2013-09-03 18:28:00,73.4,52.4,30.45,NNE,22,0.0,3.6,48,0.00,,,0.00,WUHU21623XXSP,2013-09-03 22:28:00,
2013-09-03 18:33:00,73.2,52.8,30.44,WSW,247,0.0,3.6,49,0.00,,,0.00,WUHU21623XXSP,2013-09-03 22:33:00,
2013-09-03 18:38:00,73.0,52.7,30.44,NE,45,0.0,0.0,49,0.00,,,0.00,WUHU21623XXSP,2013-09-03 22:38:00,
2013-09-03 18:44:00,72.9,52.5,30.45,NNE,22,0.0,0.0,49,0.00,,,0.00,WUHU21623XXSP,2013-09-03 22:44:00,
2013-09-03 18:49:00,72.7,53.0,30.44,NNE,22,0.0,0.0,50,0.00,,,0.00,WUHU21623XXSP,2013-09-03 22:49:00,
2013-09-03 18:54:00,72.5,52.8,30.45,East,90,0.0,0.0,50,0.00,,,0.00,WUHU21623XXSP,2013-09-03 22:54:00,
2013-09-03 18:59:00,72.3,53.1,30.45,ENE,67,0.0,0.0,51,0.00,,,0.00,WUHU21623XXSP,2013-09-03 22:59:00,
2013-09-03 19:04:00,72.1,53.0,30.44,North,0,0.0,0.0,51,0.00,,,0.00,WUHU21623XXSP,2013-09-03 23:04:00,
2013-09-03 19:09:00,72.0,53.3,30.45,NNE,22,0.0,0.0,52,0.00,,,0.00,WUHU21623XXSP,2013-09-03 23:09:00,
2013-09-03 19:13:00,71.8,53.2,30.45,WNW,292,0.0,0.0,52,0.00,,,0.00,WUHU21623XXSP,2013-09-03 23:13:00,
2013-09-03 19:19:00,71.6,53.5,30.45,WNW,292,0.0,0.0,53,0.00,,,0.00,WUHU21623XXSP,2013-09-03 23:19:00,
2013-09-03 19:24:00,71.4,53.3,30.45,WNW,292,0.0,0.0,53,0.00,,,0.00,WUHU21623XXSP,2013-09-03 23:24:00,
2013-09-03 19:29:00,71.2,53.2,30.45,North,0,0.0,0.0,53,0.00,,,0.00,WUHU21623XXSP,2013-09-03 23:29:00,
2013-09-03 19:34:00,70.9,53.3,30.45,NE,45,0.0,0.0,54,0.00,,,0.00,WUHU21623XXSP,2013-09-03 23:34:00,
2013-09-03 19:39:00,70.7,53.2,30.45,NE,45,0.0,0.0,54,0.00,,,0.00,WUHU21623XXSP,2013-09-03 23:39:00,
2013-09-03 19:44:00,70.3,53.4,30.45,NE,45,0.0,0.0,55,0.00,,,0.00,WUHU21623XXSP,2013-09-03 23:44:00,
2013-09-03 19:49:00,70.0,53.5,30.45,NE,45,0.0,0.0,56,0.00,,,0.00,WUHU21623XXSP,2013-09-03 23:49:00,
2013-09-03 19:54:00,69.6,53.5,30.45,NE,45,0.0,0.0,56,0.00,,,0.00,WUHU21623XXSP,2013-09-03 23:54:00,
2013-09-03 19:59:00,69.4,53.2,30.46,NE,45,0.0,0.0,56,0.00,,,0.00,WUHU21623XXSP,2013-09-03 23:59:00,
2013-09-03 20:04:00,69.1,53.2,30.45,NE,45,0.0,0.0,57,0.00,,,0.00,WUHU21623XXSP,2013-09-04 00:04:00,
2013-09-03 20:09:00,68.7,52.8,30.45,NE,45,0.0,0.0,57,0.00,,,0.00,WUHU21623XXSP,2013-09-04 00:09:00,
2013-09-03 20:14:00,68.7,52.8,30.46,East,90,0.0,0.0,57,0.00,,,0.00,WUHU21623XXSP,2013-09-04 00:14:00,
2013-09-03 20:19:00,68.2,52.8,30.46,ESE,112,0.0,0.0,58,0.00,,,0.00,WUHU21623XXSP,2013-09-04 00:19:00,
2013-09-03 20:24:00,67.6,52.8,30.46,South,180,0.0,0.0,59,0.00,,,0.00,WUHU21623XXSP,2013-09-04 00:24:00,
2013-09-03 20:29:00,67.5,52.6,30.46,West,270,0.0,0.0,59,0.00,,,0.00,WUHU21623XXSP,2013-09-04 00:29:00,
2013-09-03 20:34:00,66.9,52.6,30.46,NNW,337,0.0,0.0,60,0.00,,,0.00,WUHU21623XXSP,2013-09-04 00:34:00,
2013-09-03 20:39:00,66.7,52.5,30.47,NNW,337,0.0,0.0,60,0.00,,,0.00,WUHU21623XXSP,2013-09-04 00:39:00,
2013-09-03 20:44:00,66.4,52.3,30.46,NNW,337,0.0,0.0,61,0.00,,,0.00,WUHU21623XXSP,2013-09-04 00:44:00,
2013-09-03 20:49:00,66.0,52.4,30.47,NNW,337,0.0,0.0,61,0.00,,,0.00,WUHU21623XXSP,2013-09-04 00:49:00,
2013-09-03 20:54:00,65.8,52.0,30.47,WNW,292,0.0,0.0,61,0.00,,,0.00,WUHU21623XXSP,2013-09-04 00:54:00,
2013-09-03 20:59:00,65.8,52.0,30.47,WNW,292,0.0,0.0,61,0.00,,,0.00,WUHU21623XXSP,2013-09-04 00:59:00,
2013-09-03 21:04:00,65.5,52.1,30.48,SSW,202,0.0,0.0,62,0.00,,,0.00,WUHU21623XXSP,2013-09-04 01:04:00,
2013-09-03 21:09:00,65.1,51.7,30.48,West,270,0.0,0.0,62,0.00,,,0.00,WUHU21623XXSP,2013-09-04 01:09:00,
2013-09-03 21:14:00,64.9,52.0,30.48,West,270,0.0,0.0,63,0.00,,,0.00,WUHU21623XXSP,2013-09-04 01:14:00,
2013-09-03 21:19:00,64.6,51.6,30.48,West,270,0.0,0.0,63,0.00,,,0.00,WUHU21623XXSP,2013-09-04 01:19:00,
2013-09-03 21:24:00,64.2,51.7,30.48,West,270,0.0,0.0,64,0.00,,,0.00,WUHU21623XXSP,2013-09-04 01:24:00,
2013-09-03 21:29:00,64.0,51.6,30.48,West,270,0.0,0.0,64,0.00,,,0.00,WUHU21623XXSP,2013-09-04 01:29:00,
2013-09-03 21:34:00,63.7,51.2,30.48,West,270,0.0,0.0,64,0.00,,,0.00,WUHU21623XXSP,2013-09-04 01:34:00,
2013-09-03 21:39:00,63.5,51.1,30.48,West,270,0.0,0.0,64,0.00,,,0.00,WUHU21623XXSP,2013-09-04 01:39:00,
2013-09-03 21:44:00,63.1,51.1,30.48,West,270,0.0,0.0,65,0.00,,,0.00,WUHU21623XXSP,2013-09-04 01:44:00,
2013-09-03 21:49:00,63.0,51.1,30.48,West,270,0.0,0.0,65,0.00,,,0.00,WUHU21623XXSP,2013-09-04 01:49:00,
2013-09-03 21:54:00,62.8,51.2,30.48,West,270,0.0,0.0,66,0.00,,,0.00,WUHU21623XXSP,2013-09-04 01:54:00,
2013-09-03 21:59:00,62.6,51.2,30.48,West,270,0.0,0.0,66,0.00,,,0.00,WUHU21623XXSP,2013-09-04 01:59:00,
2013-09-03 22:04:00,62.4,51.3,30.48,SSW,202,0.0,0.0,67,0.00,,,0.00,WUHU21623XXSP,2013-09-04 02:04:00,
2013-09-03 22:09:00,62.4,51.3,30.48,SSW,202,0.0,0.0,67,0.00,,,0.00,WUHU21623XXSP,2013-09-04 02:09:00,
2013-09-03 22:14:00,62.2,51.3,30.48,SSW,202,0.0,0.0,68,0.00,,,0.00,WUHU21623XXSP,2013-09-04 02:14:00,
2013-09-03 22:19:00,62.1,51.4,30.49,SSW,202,0.0,0.0,68,0.00,,,0.00,WUHU21623XXSP,2013-09-04 02:19:00,
2013-09-03 22:24:00,61.7,51.1,30.49,SSW,202,0.0,0.0,68,0.00,,,0.00,WUHU21623XXSP,2013-09-04 02:24:00,
2013-09-03 22:29:00,61.5,50.9,30.49,SSW,202,0.0,0.0,68,0.00,,,0.00,WUHU21623XXSP,2013-09-04 02:29:00,
2013-09-03 22:34:00,61.3,51.2,30.49,SSW,202,0.0,0.0,69,0.00,,,0.00,WUHU21623XXSP,2013-09-04 02:34:00,
2013-09-03 22:39:00,61.3,51.2,30.49,SSW,202,0.0,0.0,69,0.00,,,0.00,WUHU21623XXSP,2013-09-04 02:39:00,
2013-09-03 22:44:00,61.2,51.0,30.49,SSW,202,0.0,0.0,69,0.00,,,0.00,WUHU21623XXSP,2013-09-04 02:44:00,
2013-09-03 22:49:00,61.0,51.2,30.49,SSW,202,0.0,0.0,70,0.00,,,0.00,WUHU21623XXSP,2013-09-04 02:49:00,
2013-09-03 22:50:00,60.8,51.1,30.50,SSW,202,0.0,0.0,70,0.00,,,0.00,WUHU21623XXSP,2013-09-04 02:50:00,
2013-09-03 22:57:00,60.4,50.7,30.50,SSW,202,0.0,0.0,70,0.00,,,0.00,WUHU21623XXSP,2013-09-04 02:57:00,
2013-09-03 23:01:00,60.4,51.1,30.50,SSW,202,0.0,0.0,71,0.00,,,0.00,WUHU21623XXSP,2013-09-04 03:01:00,
2013-09-03 23:07:00,60.1,50.7,30.50,SSW,202,0.0,0.0,71,0.00,,,0.00,WUHU21623XXSP,2013-09-04 03:07:00,
2013-09-03 23:12:00,59.9,50.5,30.50,SSW,202,0.0,0.0,71,0.00,,,0.00,WUHU21623XXSP,2013-09-04 03:12:00,
2013-09-03 23:16:00,59.7,50.7,30.50,SSW,202,0.0,0.0,72,0.00,,,0.00,WUHU21623XXSP,2013-09-04 03:16:00,
2013-09-03 23:22:00,59.5,50.5,30.50,SSW,202,0.0,0.0,72,0.00,,,0.00,WUHU21623XXSP,2013-09-04 03:22:00,
2013-09-03 23:27:00,59.4,50.7,30.50,SSW,202,0.0,0.0,73,0.00,,,0.00,WUHU21623XXSP,2013-09-04 03:27:00,
2013-09-03 23:33:00,59.2,50.5,30.50,SW,225,0.0,0.0,73,0.00,,,0.00,WUHU21623XXSP,2013-09-04 03:33:00,
2013-09-03 23:37:00,58.8,50.5,30.50,SW,225,0.0,0.0,74,0.00,,,0.00,WUHU21623XXSP,2013-09-04 03:37:00,
2013-09-03 23:44:00,58.8,50.5,30.50,SW,225,0.0,0.0,74,0.00,,,0.00,WUHU21623XXSP,2013-09-04 03:44:00,
2013-09-03 23:48:00,58.6,50.4,30.50,SW,225,0.0,0.0,74,0.00,,,0.00,WUHU21623XXSP,2013-09-04 03:48:00,
2013-09-03 23:52:00,58.3,50.0,30.50,SW,225,0.0,0.0,74,0.00,,,0.00,WUHU21623XXSP,2013-09-04 03:52:00,
2013-09-03 23:59:00,57.9,49.8,30.50,SW,225,0.0,0.0,74,0.00,,,0.00,WUHU21623XXSP,2013-09-04 03:59:00,